Time;durP1;ratioP1;P1;durP2;ratioP2;P2;SDS_P1;SDS_P2;PMS_P1;PMS_P2;Temp;Humidity;BMP_temperature;BMP_pressure;BME280_temperature;BME280_humidity;BME280_pressure;Samples;Min_cycle;Max_cycle;Signal;HPM_P1;HPM_P2
2021/01/14 00:00:57;;;;;;;7.72;3.95;;;4.90;99.90;;;;;;4992194;28;20034;-59
2021/01/14 00:03:23;;;;;;;8.88;4.53;;;5.00;99.90;;;;;;4992109;28;20451;-58
2021/01/14 00:05:49;;;;;;;10.30;5.10;;;5.00;99.90;;;;;;4996093;28;20030;-59
2021/01/14 00:08:15;;;;;;;9.55;4.20;;;5.00;99.90;;;;;;4995707;28;20046;-58
2021/01/14 00:10:40;;;;;;;7.43;4.07;;;4.90;99.90;;;;;;4995839;28;20026;-57
2021/01/14 00:13:07;;;;;;;8.43;3.95;;;4.90;99.90;;;;;;4995847;28;20042;-57
2021/01/14 00:15:33;;;;;;;9.38;4.55;;;5.00;99.90;;;;;;4996044;28;20026;-58
2021/01/14 00:18:00;;;;;;;8.48;3.85;;;5.00;99.90;;;;;;4995824;28;20109;-59
2021/01/14 00:20:27;;;;;;;9.48;3.80;;;5.00;99.90;;;;;;4995736;28;20026;-59
2021/01/14 00:22:53;;;;;;;11.43;4.72;;;4.90;99.90;;;;;;4995739;28;20038;-58
2021/01/14 00:25:20;;;;;;;6.22;2.70;;;5.00;99.90;;;;;;4995769;28;20049;-59
2021/01/14 00:27:46;;;;;;;7.05;3.67;;;5.00;99.90;;;;;;4995782;28;20033;-57
2021/01/14 00:30:32;;;;;;;7.03;2.78;;;5.00;99.90;;;;;;4995732;28;20105;-57
2021/01/14 00:32:59;;;;;;;7.40;3.80;;;5.10;99.90;;;;;;4995470;28;20049;-58
2021/01/14 00:35:26;;;;;;;5.68;2.58;;;5.00;99.90;;;;;;4995666;28;20034;-58
2021/01/14 00:37:55;;;;;;;4.85;2.40;;;5.00;99.90;;;;;;4995319;28;20043;-59
2021/01/14 00:40:25;;;;;;;4.43;2.10;;;5.00;99.90;;;;;;4995643;28;20034;-59
2021/01/14 00:43:01;;;;;;;5.50;2.63;;;5.00;99.90;;;;;;4995567;28;20060;-56
2021/01/14 00:45:28;;;;;;;8.32;2.45;;;5.10;99.90;;;;;;4995629;28;20085;-58
2021/01/14 00:47:55;;;;;;;7.47;2.40;;;5.00;99.90;;;;;;4995432;28;20061;-58
2021/01/14 00:50:21;;;;;;;6.63;2.83;;;5.00;99.90;;;;;;4995206;28;20030;-60
2021/01/14 00:52:47;;;;;;;8.73;3.30;;;5.00;99.90;;;;;;4994914;28;20050;-57
2021/01/14 00:55:15;;;;;;;7.13;3.08;;;5.00;99.90;;;;;;4995248;28;20395;-58
2021/01/14 00:57:41;;;;;;;5.88;3.03;;;5.10;99.90;;;;;;4994918;28;20084;-59
2021/01/14 01:00:11;;;;;;;6.13;2.42;;;5.00;99.90;;;;;;4994888;28;20118;-60
2021/01/14 01:02:42;;;;;;;9.05;3.40;;;5.10;99.90;;;;;;4994801;28;20070;-59
2021/01/14 01:05:10;;;;;;;5.97;2.97;;;5.00;99.90;;;;;;4994743;28;20031;-59
2021/01/14 01:07:37;;;;;;;5.80;2.60;;;5.10;99.90;;;;;;4995041;28;20054;-59
2021/01/14 01:10:06;;;;;;;5.38;1.90;;;5.10;99.90;;;;;;4994968;28;20092;-58
2021/01/14 01:12:32;;;;;;;4.13;1.98;;;5.20;99.90;;;;;;4994692;28;20092;-59
2021/01/14 01:14:58;;;;;;;4.00;2.17;;;5.10;99.90;;;;;;4994484;28;20022;-60
2021/01/14 01:17:31;;;;;;;6.45;2.30;;;5.10;99.90;;;;;;4994721;28;20034;-59
2021/01/14 01:19:58;;;;;;;5.60;2.88;;;5.10;99.90;;;;;;4994943;28;20037;-59
2021/01/14 01:22:24;;;;;;;10.82;2.72;;;5.10;99.90;;;;;;4994719;28;20034;-60
2021/01/14 01:24:50;;;;;;;8.55;2.90;;;5.20;99.90;;;;;;4994733;28;20038;-58
2021/01/14 01:27:16;;;;;;;8.40;3.17;;;5.20;99.90;;;;;;4994544;28;20041;-59
2021/01/14 01:29:42;;;;;;;4.55;2.33;;;5.10;99.90;;;;;;4994356;28;20439;-56
2021/01/14 01:32:08;;;;;;;4.85;2.50;;;5.20;99.90;;;;;;4994479;28;20106;-60
2021/01/14 01:34:34;;;;;;;4.22;1.90;;;5.10;99.90;;;;;;4994138;28;20034;-59
2021/01/14 01:37:00;;;;;;;5.25;2.30;;;5.20;99.90;;;;;;4994194;28;20396;-60
2021/01/14 01:39:26;;;;;;;5.32;1.98;;;5.20;99.90;;;;;;4994105;28;20035;-58
2021/01/14 01:41:57;;;;;;;7.57;2.72;;;5.20;99.90;;;;;;4994091;28;20030;-59
2021/01/14 01:44:25;;;;;;;5.97;2.80;;;5.20;99.90;;;;;;4994016;28;20030;-58
2021/01/14 01:46:55;;;;;;;7.32;2.40;;;5.20;99.90;;;;;;4994010;28;20031;-58
2021/01/14 01:49:22;;;;;;;5.17;2.60;;;5.20;99.90;;;;;;4994425;28;20031;-57
2021/01/14 01:51:52;;;;;;;8.55;2.38;;;5.20;99.90;;;;;;5009145;28;20030;-58
2021/01/14 01:54:20;;;;;;;7.85;2.70;;;5.20;99.90;;;;;;4994351;28;20035;-59
2021/01/14 01:56:49;;;;;;;13.73;2.90;;;5.20;99.90;;;;;;4993784;28;20101;-58
2021/01/14 01:59:20;;;;;;;10.10;3.45;;;5.10;99.90;;;;;;4993611;28;20166;-58
2021/01/14 02:01:46;;;;;;;6.97;3.10;;;5.10;99.90;;;;;;5009246;28;20026;-58
2021/01/14 02:04:12;;;;;;;8.80;3.17;;;5.10;99.90;;;;;;4993557;28;20038;-58
2021/01/14 02:07:01;;;;;;;11.25;3.40;;;5.00;99.90;;;;;;4993972;28;20038;-59
2021/01/14 02:09:27;;;;;;;14.68;5.22;;;4.90;99.90;;;;;;4993861;28;20034;-58
2021/01/14 02:12:06;;;;;;;6.43;2.92;;;4.80;99.90;;;;;;5008868;28;20038;-58
2021/01/14 02:14:34;;;;;;;5.88;3.58;;;4.80;99.90;;;;;;5008642;28;20086;-59
2021/01/14 02:17:00;;;;;;;8.75;3.97;;;4.80;99.90;;;;;;4993464;28;20026;-59
2021/01/14 02:19:42;;;;;;;6.88;3.10;;;4.80;99.90;;;;;;4993481;28;20026;-59
2021/01/14 02:22:28;;;;;;;7.43;3.05;;;4.80;99.90;;;;;;5008306;28;20045;-57
2021/01/14 02:25:19;;;;;;;6.82;2.85;;;4.80;99.90;;;;;;5006820;28;20032;-58
2021/01/14 02:27:46;;;;;;;15.05;4.80;;;4.70;99.90;;;;;;5006675;28;20026;-57
2021/01/14 02:30:13;;;;;;;9.52;4.57;;;4.70;99.90;;;;;;5008199;28;20039;-58
2021/01/14 02:32:42;;;;;;;14.98;4.32;;;4.70;99.90;;;;;;4993489;28;20038;-59
2021/01/14 02:35:09;;;;;;;9.73;4.13;;;4.70;99.90;;;;;;4993335;28;20045;-59
2021/01/14 02:37:35;;;;;;;8.15;3.20;;;4.70;99.90;;;;;;4993026;28;20051;-59
2021/01/14 02:40:02;;;;;;;9.27;3.65;;;4.70;99.90;;;;;;4993341;28;20057;-60
2021/01/14 02:42:28;;;;;;;14.27;5.10;;;4.70;99.90;;;;;;4993088;28;20058;-58
2021/01/14 02:44:54;;;;;;;12.63;4.18;;;4.70;99.90;;;;;;4993330;28;20120;-59
2021/01/14 02:47:22;;;;;;;13.68;3.22;;;4.70;99.90;;;;;;4992907;28;20034;-58
2021/01/14 02:50:08;;;;;;;16.00;3.75;;;4.60;99.90;;;;;;5008399;28;20040;-58
2021/01/14 02:52:37;;;;;;;12.30;3.30;;;4.60;99.90;;;;;;4995135;28;20038;-59
2021/01/14 02:55:05;;;;;;;6.25;2.95;;;4.60;99.90;;;;;;5008116;28;20030;-54
2021/01/14 02:57:31;;;;;;;6.80;3.30;;;4.50;99.90;;;;;;4993039;28;20037;-58
2021/01/14 03:00:00;;;;;;;8.70;3.42;;;4.40;99.90;;;;;;4993141;28;20034;-60
2021/01/14 03:02:29;;;;;;;10.18;4.03;;;4.40;99.90;;;;;;4991811;28;20040;-60
2021/01/14 03:04:55;;;;;;;8.90;3.58;;;4.40;99.90;;;;;;4992797;28;20041;-60
2021/01/14 03:07:20;;;;;;;8.68;4.20;;;4.50;99.90;;;;;;4992903;28;20113;-59
2021/01/14 03:09:46;;;;;;;10.65;5.07;;;4.50;99.90;;;;;;4993035;28;20070;-60
2021/01/14 03:12:12;;;;;;;9.20;4.72;;;4.50;99.90;;;;;;4992805;28;20089;-59
2021/01/14 03:14:38;;;;;;;14.00;4.82;;;4.40;99.90;;;;;;4992976;28;20034;-59
2021/01/14 03:17:04;;;;;;;12.07;4.90;;;4.40;99.90;;;;;;4993049;28;20034;-60
2021/01/14 03:19:30;;;;;;;10.43;5.07;;;4.40;99.90;;;;;;4992824;28;20058;-60
2021/01/14 03:22:02;;;;;;;12.32;5.43;;;4.30;99.90;;;;;;4992995;28;20391;-58
2021/01/14 03:24:29;;;;;;;9.27;4.90;;;4.40;99.90;;;;;;4992787;28;20065;-58
2021/01/14 03:26:55;;;;;;;8.38;3.90;;;4.30;99.90;;;;;;4992568;28;20038;-59
2021/01/14 03:29:21;;;;;;;11.48;3.97;;;4.30;99.90;;;;;;4992758;28;20035;-58
2021/01/14 03:31:46;;;;;;;9.82;4.35;;;4.30;99.90;;;;;;4992442;28;20129;-58
2021/01/14 03:34:12;;;;;;;8.80;3.75;;;4.20;99.90;;;;;;4992447;28;20057;-58
2021/01/14 03:36:56;;;;;;;7.43;3.80;;;4.10;99.90;;;;;;4992573;28;20035;-58
2021/01/14 03:39:28;;;;;;;10.35;4.30;;;4.10;99.90;;;;;;4993991;28;20046;-57
2021/01/14 03:41:55;;;;;;;7.28;3.97;;;4.00;99.90;;;;;;4996834;28;20026;-58
2021/01/14 03:44:23;;;;;;;8.82;4.35;;;4.00;99.90;;;;;;4996527;28;20034;-57
2021/01/14 03:46:50;;;;;;;8.93;4.28;;;4.00;99.90;;;;;;4996507;28;20018;-58
2021/01/14 03:49:17;;;;;;;10.13;3.67;;;4.00;99.90;;;;;;4996082;28;20038;-59
2021/01/14 03:51:44;;;;;;;14.60;3.85;;;4.00;99.90;;;;;;4996114;28;20026;-58
2021/01/14 03:54:11;;;;;;;8.90;3.95;;;4.10;99.90;;;;;;5011378;28;20034;-59
2021/01/14 03:56:41;;;;;;;9.30;3.35;;;4.10;99.90;;;;;;4996470;28;20031;-59
2021/01/14 03:59:08;;;;;;;10.38;3.92;;;4.10;99.90;;;;;;4996354;28;20038;-58
2021/01/14 04:01:34;;;;;;;14.85;6.50;;;4.10;99.90;;;;;;4996177;28;20071;-59
2021/01/14 04:04:01;;;;;;;17.60;5.55;;;4.20;99.90;;;;;;4996274;28;20072;-59
2021/01/14 04:06:36;;;;;;;10.15;5.40;;;4.20;99.90;;;;;;4995737;28;20120;-58
2021/01/14 04:09:04;;;;;;;11.32;5.93;;;4.10;99.90;;;;;;4996138;28;20038;-59
2021/01/14 04:11:31;;;;;;;12.23;5.10;;;4.20;99.90;;;;;;4995946;28;20038;-59
2021/01/14 04:13:57;;;;;;;14.48;4.50;;;4.20;99.90;;;;;;4994910;28;20042;-59
2021/01/14 04:16:23;;;;;;;11.93;5.40;;;4.20;99.90;;;;;;4995568;28;20113;-58
2021/01/14 04:18:49;;;;;;;13.68;4.90;;;4.10;99.90;;;;;;4995992;28;20137;-56
2021/01/14 04:21:16;;;;;;;13.52;5.03;;;4.10;99.90;;;;;;4995425;28;20030;-58
2021/01/14 04:23:45;;;;;;;15.63;5.28;;;4.10;99.90;;;;;;4995932;28;20077;-57
2021/01/14 04:26:12;;;;;;;12.45;4.78;;;4.10;99.90;;;;;;4995554;28;20031;-59
2021/01/14 04:28:39;;;;;;;9.75;4.18;;;4.10;99.90;;;;;;4995606;28;20166;-56
2021/01/14 04:31:06;;;;;;;14.30;5.57;;;4.10;99.90;;;;;;4995504;28;20031;-58
2021/01/14 04:33:32;;;;;;;14.88;5.82;;;4.10;99.90;;;;;;4995537;28;20034;-58
2021/01/14 04:36:01;;;;;;;10.68;4.57;;;4.20;99.90;;;;;;4995569;28;20026;-58
2021/01/14 04:38:28;;;;;;;12.60;5.55;;;4.20;99.90;;;;;;4994863;28;20093;-59
2021/01/14 04:41:00;;;;;;;7.93;4.28;;;4.20;99.90;;;;;;4995026;28;20033;-57
2021/01/14 04:43:29;;;;;;;10.43;4.57;;;4.20;99.90;;;;;;4995523;28;20158;-58
2021/01/14 04:46:04;;;;;;;10.60;4.35;;;4.10;99.90;;;;;;5008871;28;20030;-58
2021/01/14 04:48:57;;;;;;;8.98;4.45;;;4.20;99.90;;;;;;4995055;28;20081;-59
2021/01/14 04:51:27;;;;;;;11.60;3.92;;;4.10;99.90;;;;;;4993506;28;20081;-57
2021/01/14 04:54:02;;;;;;;12.10;4.77;;;4.10;99.90;;;;;;5009966;28;20042;-58
2021/01/14 04:56:34;;;;;;;7.05;3.65;;;4.10;99.90;;;;;;4994426;28;20109;-58
2021/01/14 04:59:04;;;;;;;9.23;4.70;;;4.10;99.90;;;;;;4995128;28;20034;-58
2021/01/14 05:01:35;;;;;;;16.85;4.55;;;4.10;99.90;;;;;;4966604;28;20137;-60
2021/01/14 05:04:04;;;;;;;13.52;4.72;;;4.10;99.90;;;;;;4994933;28;20035;-57
2021/01/14 05:06:38;;;;;;;9.95;4.35;;;4.10;99.90;;;;;;4994877;28;20034;-55
2021/01/14 05:09:07;;;;;;;11.05;4.68;;;4.10;99.90;;;;;;4993502;28;20030;-59
2021/01/14 05:11:45;;;;;;;12.77;4.75;;;4.00;99.90;;;;;;4993317;28;20034;-57
2021/01/14 05:14:10;;;;;;;8.70;4.50;;;4.00;99.90;;;;;;5012609;28;20038;-56
2021/01/14 05:16:36;;;;;;;9.80;4.97;;;3.90;99.90;;;;;;5013728;28;20041;-58
2021/01/14 05:19:03;;;;;;;11.32;4.03;;;4.00;99.90;;;;;;5013770;28;20382;-57
2021/01/14 05:21:33;;;;;;;12.68;4.53;;;3.90;99.90;;;;;;5013522;28;20164;-58
2021/01/14 05:24:16;;;;;;;12.57;4.50;;;4.00;99.90;;;;;;5013643;28;20038;-58
2021/01/14 05:26:43;;;;;;;10.88;4.28;;;4.00;99.90;;;;;;5013205;28;20038;-57
2021/01/14 05:29:17;;;;;;;8.98;4.20;;;3.90;99.90;;;;;;5013549;28;20112;-57
2021/01/14 05:31:45;;;;;;;13.30;4.90;;;4.00;99.90;;;;;;5013193;28;20176;-57
2021/01/14 05:34:14;;;;;;;13.88;4.18;;;3.90;99.90;;;;;;5013305;28;20034;-59
2021/01/14 05:37:06;;;;;;;11.93;4.47;;;3.90;99.90;;;;;;5012964;28;20034;-58
2021/01/14 05:39:42;;;;;;;11.25;3.90;;;3.80;99.90;;;;;;5012483;28;20046;-58
2021/01/14 05:42:11;;;;;;;11.00;4.95;;;3.90;99.90;;;;;;5013728;28;20037;-58
2021/01/14 05:44:42;;;;;;;10.95;3.88;;;3.90;99.90;;;;;;5013607;28;20045;-57
2021/01/14 05:47:28;;;;;;;8.68;4.57;;;3.70;99.90;;;;;;5013472;28;20038;-58
2021/01/14 05:49:59;;;;;;;10.52;4.82;;;3.60;99.90;;;;;;5013855;28;20034;-59
2021/01/14 05:52:28;;;;;;;15.98;4.72;;;3.60;99.90;;;;;;5013681;28;20042;-58
2021/01/14 05:55:09;;;;;;;13.40;4.28;;;3.60;99.90;;;;;;5013749;28;20087;-58
2021/01/14 05:57:39;;;;;;;13.68;4.65;;;3.60;99.90;;;;;;5013325;28;20553;-59
2021/01/14 06:00:14;;;;;;;8.20;4.35;;;3.60;99.90;;;;;;5013548;28;20042;-59
2021/01/14 06:02:41;;;;;;;8.82;4.15;;;3.50;99.90;;;;;;5012293;28;20092;-57
2021/01/14 06:05:32;;;;;;;15.45;4.80;;;3.60;99.90;;;;;;5013602;28;20034;-57
2021/01/14 06:08:05;;;;;;;9.85;4.57;;;3.70;99.90;;;;;;5013428;28;20026;-53
2021/01/14 06:10:33;;;;;;;15.00;4.55;;;3.70;99.90;;;;;;5012147;28;20073;-57
2021/01/14 06:13:00;;;;;;;9.93;4.20;;;3.60;99.90;;;;;;5013101;28;20033;-57
2021/01/14 06:15:26;;;;;;;8.40;4.22;;;3.70;99.90;;;;;;5013218;28;20034;-57
2021/01/14 06:17:54;;;;;;;12.45;4.25;;;3.80;99.90;;;;;;5013205;28;20026;-57
2021/01/14 06:20:20;;;;;;;10.90;4.15;;;3.80;99.90;;;;;;5011866;28;20112;-57
2021/01/14 06:22:46;;;;;;;14.05;4.03;;;3.90;99.90;;;;;;5012655;28;20121;-57
2021/01/14 06:25:12;;;;;;;12.00;4.70;;;3.90;99.90;;;;;;5012657;28;20033;-58
2021/01/14 06:27:39;;;;;;;8.48;3.60;;;3.90;99.90;;;;;;5012878;28;20120;-57
2021/01/14 06:30:09;;;;;;;12.93;3.78;;;3.80;99.90;;;;;;5012874;28;20060;-56
2021/01/14 06:32:38;;;;;;;10.85;4.28;;;3.70;99.90;;;;;;5012491;28;20038;-56
2021/01/14 06:35:08;;;;;;;8.88;3.70;;;3.60;99.90;;;;;;5013014;28;20038;-59
2021/01/14 06:37:38;;;;;;;9.43;3.35;;;3.60;99.90;;;;;;5012671;28;20096;-54
2021/01/14 06:40:06;;;;;;;7.05;3.17;;;3.70;99.90;;;;;;5012513;28;20053;-57
2021/01/14 06:42:37;;;;;;;14.38;3.65;;;3.50;99.90;;;;;;5011830;28;20079;-58
2021/01/14 06:45:08;;;;;;;7.55;3.40;;;3.50;99.90;;;;;;5012314;28;20033;-57
2021/01/14 06:47:46;;;;;;;18.27;3.90;;;3.40;99.90;;;;;;5011873;28;20030;-59
2021/01/14 06:50:15;;;;;;;10.20;2.92;;;3.50;99.90;;;;;;5012286;28;20057;-57
2021/01/14 06:53:00;;;;;;;6.80;3.35;;;3.50;99.90;;;;;;5011903;28;20036;-58
2021/01/14 06:55:28;;;;;;;9.82;2.95;;;3.50;99.90;;;;;;5012342;28;20083;-57
2021/01/14 06:58:12;;;;;;;10.95;3.10;;;3.50;99.90;;;;;;5012676;28;20087;-58
2021/01/14 07:00:47;;;;;;;6.70;2.50;;;3.50;99.90;;;;;;5012607;28;20029;-57
2021/01/14 07:03:13;;;;;;;7.10;2.10;;;3.60;99.90;;;;;;5012627;28;20036;-57
2021/01/14 07:05:54;;;;;;;10.02;2.15;;;3.60;99.90;;;;;;5012211;28;20038;-57
2021/01/14 07:08:37;;;;;;;6.90;2.30;;;3.50;99.90;;;;;;5012537;28;20111;-57
2021/01/14 07:11:19;;;;;;;6.70;2.05;;;3.50;99.90;;;;;;5012547;28;20112;-57
2021/01/14 07:13:51;;;;;;;8.40;3.13;;;3.40;99.90;;;;;;5011857;28;20113;-55
2021/01/14 07:16:20;;;;;;;11.55;2.60;;;3.40;99.90;;;;;;5012251;28;20033;-57
2021/01/14 07:18:47;;;;;;;8.13;3.10;;;3.40;99.90;;;;;;5011967;28;20044;-59
2021/01/14 07:21:34;;;;;;;6.43;2.30;;;3.40;99.90;;;;;;5012408;28;20030;-59
2021/01/14 07:24:29;;;;;;;12.15;3.10;;;3.20;99.90;;;;;;5012112;28;20076;-57
2021/01/14 07:27:01;;;;;;;8.73;2.72;;;3.10;99.90;;;;;;5012572;28;20085;-57
2021/01/14 07:29:29;;;;;;;7.97;2.75;;;3.10;99.90;;;;;;5010811;28;20053;-58
2021/01/14 07:32:00;;;;;;;11.43;2.97;;;3.00;99.90;;;;;;5012205;28;20068;-58
2021/01/14 07:34:36;;;;;;;10.07;2.97;;;3.00;99.90;;;;;;5012095;28;20037;-58
2021/01/14 07:37:11;;;;;;;8.57;3.28;;;3.00;99.90;;;;;;5011880;28;20056;-59
2021/01/14 07:39:56;;;;;;;6.57;2.78;;;3.00;99.90;;;;;;5011883;28;20062;-58
2021/01/14 07:42:27;;;;;;;8.65;2.17;;;3.00;99.90;;;;;;5012025;28;20030;-57
2021/01/14 07:45:14;;;;;;;9.95;3.10;;;3.00;99.90;;;;;;5012043;28;20034;-57
2021/01/14 07:47:40;;;;;;;10.38;3.53;;;3.00;99.90;;;;;;5011572;28;20045;-58
2021/01/14 07:50:25;;;;;;;12.30;3.15;;;2.90;99.90;;;;;;5012113;28;20371;-57
2021/01/14 07:52:54;;;;;;;7.38;2.63;;;3.00;99.90;;;;;;5012087;28;20073;-59
2021/01/14 07:55:28;;;;;;;92.13;33.97;;;2.90;99.90;;;;;;5012204;28;20116;-57
2021/01/14 07:58:23;;;;;;;11.98;5.05;;;2.90;99.90;;;;;;5012006;28;20084;-58
2021/01/14 08:01:02;;;;;;;9.15;2.55;;;3.00;99.90;;;;;;5011346;28;20104;-59
2021/01/14 08:03:30;;;;;;;5.70;2.08;;;2.90;99.90;;;;;;5011527;28;20081;-59
2021/01/14 08:05:56;;;;;;;8.93;2.22;;;2.90;99.90;;;;;;5011769;28;20040;-54
2021/01/14 08:08:36;;;;;;;9.70;1.95;;;2.70;99.90;;;;;;5011819;28;20026;-56
2021/01/14 08:11:11;;;;;;;9.27;2.17;;;2.70;99.90;;;;;;5011910;28;20045;-58
2021/01/14 08:14:12;;;;;;;6.93;2.30;;;2.80;99.90;;;;;;5011775;28;20128;-57
2021/01/14 08:16:49;;;;;;;7.22;2.30;;;3.00;99.90;;;;;;5011598;28;20034;-58
2021/01/14 08:19:32;;;;;;;7.90;2.63;;;3.00;99.90;;;;;;5011590;28;20034;-57
2021/01/14 08:21:58;;;;;;;5.78;1.95;;;3.10;99.90;;;;;;5011729;28;20134;-59
2021/01/14 08:25:03;;;;;;;6.97;1.92;;;3.10;99.90;;;;;;5011819;28;20026;-57
2021/01/14 08:27:38;;;;;;;8.18;2.15;;;3.20;99.90;;;;;;5015270;28;20041;-57
2021/01/14 08:30:15;;;;;;;11.65;2.97;;;3.20;99.90;;;;;;5015155;28;20029;-56
2021/01/14 08:32:59;;;;;;;9.98;2.00;;;3.20;99.90;;;;;;5015074;28;20029;-59
2021/01/14 08:35:28;;;;;;;7.55;2.05;;;3.20;99.90;;;;;;5015271;28;20040;-58
2021/01/14 08:38:06;;;;;;;7.72;2.13;;;3.30;99.90;;;;;;5014891;28;20045;-58
2021/01/14 08:40:35;;;;;;;9.18;2.65;;;3.20;99.90;;;;;;5015084;28;20034;-57
2021/01/14 08:43:08;;;;;;;7.97;2.85;;;3.30;99.90;;;;;;5013546;28;20030;-57
2021/01/14 08:45:47;;;;;;;8.75;2.80;;;3.20;99.90;;;;;;5014560;28;20029;-58
2021/01/14 08:48:22;;;;;;;14.98;3.30;;;3.20;99.90;;;;;;4994858;28;20046;-58
2021/01/14 08:50:54;;;;;;;9.23;3.33;;;3.30;99.90;;;;;;4994836;28;20031;-58
2021/01/14 08:53:33;;;;;;;7.22;2.60;;;3.20;99.90;;;;;;4994703;28;20042;-60
2021/01/14 08:56:15;;;;;;;7.85;2.50;;;3.20;99.90;;;;;;4994941;28;20121;-58
2021/01/14 08:58:48;;;;;;;9.38;2.47;;;3.30;99.90;;;;;;4993658;28;20030;-59
2021/01/14 09:01:23;;;;;;;5.90;2.22;;;3.20;99.90;;;;;;4995101;28;20038;-58
2021/01/14 09:03:52;;;;;;;8.77;2.53;;;3.20;99.90;;;;;;5012420;28;20029;-58
2021/01/14 09:06:38;;;;;;;9.85;2.30;;;3.20;99.90;;;;;;5014302;28;20033;-63
2021/01/14 09:09:10;;;;;;;9.95;3.10;;;3.40;99.90;;;;;;5013978;28;20040;-59
2021/01/14 09:11:37;;;;;;;10.40;2.92;;;3.40;99.90;;;;;;5013226;28;20025;-57
2021/01/14 09:14:16;;;;;;;7.25;2.33;;;3.50;99.90;;;;;;5011586;28;20041;-58
2021/01/14 09:16:44;;;;;;;11.30;2.47;;;3.40;99.90;;;;;;5008473;28;20033;-59
2021/01/14 09:19:24;;;;;;;5.85;1.98;;;3.30;99.90;;;;;;5014389;28;20041;-57
2021/01/14 09:21:49;;;;;;;9.13;3.03;;;3.20;99.90;;;;;;5014016;28;20121;-57
2021/01/14 09:24:17;;;;;;;9.25;2.42;;;3.20;99.90;;;;;;5014258;28;20119;-57
2021/01/14 09:26:48;;;;;;;7.00;2.40;;;3.30;99.90;;;;;;5013949;28;20030;-57
2021/01/14 09:29:15;;;;;;;13.38;2.50;;;3.30;99.90;;;;;;5013068;28;20022;-58
2021/01/14 09:31:43;;;;;;;17.33;3.30;;;3.30;99.90;;;;;;5014000;28;20032;-58
2021/01/14 09:34:09;;;;;;;4.18;1.70;;;3.20;99.90;;;;;;5013061;28;20037;-58
2021/01/14 09:36:36;;;;;;;11.32;2.83;;;3.20;99.90;;;;;;5012427;28;20134;-58
2021/01/14 09:39:13;;;;;;;4.47;2.13;;;3.20;99.90;;;;;;5013068;28;20033;-58
2021/01/14 09:41:41;;;;;;;7.93;2.03;;;3.10;99.90;;;;;;5013593;28;20120;-58
2021/01/14 09:44:13;;;;;;;3.88;1.92;;;3.10;99.90;;;;;;5013473;28;20049;-58
2021/01/14 09:46:45;;;;;;;6.45;2.20;;;3.10;99.90;;;;;;5013505;28;20042;-57
2021/01/14 09:49:14;;;;;;;6.97;2.20;;;3.20;99.90;;;;;;5013749;28;20040;-58
2021/01/14 09:51:43;;;;;;;9.70;1.60;;;3.30;99.90;;;;;;5013697;28;20045;-56
2021/01/14 09:54:10;;;;;;;5.93;1.77;;;3.10;99.90;;;;;;5013668;28;20033;-59
2021/01/14 09:56:42;;;;;;;9.45;1.77;;;3.20;99.90;;;;;;5012077;28;20030;-56
2021/01/14 09:59:43;;;;;;;8.48;1.70;;;3.20;99.90;;;;;;5013730;28;20109;-58
2021/01/14 10:02:34;;;;;;;4.68;1.40;;;3.20;99.90;;;;;;5012514;28;20054;-57
2021/01/14 10:05:11;;;;;;;6.88;1.52;;;3.30;99.90;;;;;;5012373;28;20061;-59
2021/01/14 10:07:42;;;;;;;5.38;1.40;;;3.30;99.90;;;;;;5012236;28;20033;-59
2021/01/14 10:10:09;;;;;;;8.20;2.10;;;3.30;99.90;;;;;;5013523;28;20067;-59
2021/01/14 10:12:34;;;;;;;4.35;1.58;;;3.30;99.90;;;;;;5012135;28;20034;-57
2021/01/14 10:15:14;;;;;;;5.43;1.67;;;3.40;99.90;;;;;;5013175;28;20026;-57
2021/01/14 10:17:42;;;;;;;7.07;1.20;;;3.40;99.90;;;;;;5013159;28;20034;-57
2021/01/14 10:20:14;;;;;;;4.75;2.00;;;3.50;99.90;;;;;;5013271;28;20038;-59
2021/01/14 10:22:48;;;;;;;35.10;15.90;;;3.30;99.90;;;;;;5013164;28;20025;-60
2021/01/14 10:25:15;;;;;;;12.00;2.70;;;3.20;99.90;;;;;;5013239;28;20037;-58
2021/01/14 10:27:41;;;;;;;5.85;2.00;;;3.20;99.90;;;;;;5012982;28;20030;-58
2021/01/14 10:30:41;;;;;;;6.20;1.33;;;3.30;99.90;;;;;;5013274;28;20046;-58
2021/01/14 10:33:07;;;;;;;4.85;1.58;;;3.30;99.90;;;;;;5011167;28;20129;-59
2021/01/14 10:35:35;;;;;;;2.97;1.13;;;3.40;99.90;;;;;;5012794;28;20034;-58
2021/01/14 10:38:04;;;;;;;5.35;1.30;;;3.40;99.90;;;;;;5012356;28;20046;-57
2021/01/14 10:40:54;;;;;;;5.63;1.40;;;3.30;99.90;;;;;;5012503;28;20049;-57
2021/01/14 10:43:34;;;;;;;8.68;1.73;;;3.50;99.90;;;;;;5013039;28;20072;-57
2021/01/14 10:46:01;;;;;;;2.85;1.45;;;3.50;99.90;;;;;;5012783;28;20037;-57
2021/01/14 10:48:42;;;;;;;4.45;1.45;;;3.50;99.90;;;;;;5012298;28;20040;-57
2021/01/14 10:51:08;;;;;;;7.90;1.43;;;3.50;99.90;;;;;;5012809;28;20039;-59
2021/01/14 10:53:41;;;;;;;6.57;2.90;;;3.60;99.90;;;;;;5011539;28;20293;-59
2021/01/14 10:56:12;;;;;;;5.65;1.70;;;3.60;99.90;;;;;;5012563;28;20041;-59
2021/01/14 10:58:40;;;;;;;5.25;1.48;;;3.70;99.90;;;;;;5010302;28;20044;-58
2021/01/14 11:01:20;;;;;;;11.80;1.98;;;3.90;99.90;;;;;;5012215;28;20030;-57
2021/01/14 11:03:47;;;;;;;5.82;1.65;;;3.90;99.90;;;;;;5012332;28;20038;-59
2021/01/14 11:06:31;;;;;;;6.60;1.42;;;4.00;99.90;;;;;;5010948;28;20022;-57
2021/01/14 11:09:06;;;;;;;4.90;1.90;;;4.20;99.90;;;;;;5012390;28;20117;-60
2021/01/14 11:11:34;;;;;;;9.18;2.03;;;4.20;99.90;;;;;;5012527;28;20037;-59
2021/01/14 11:14:00;;;;;;;3.42;1.30;;;4.00;99.90;;;;;;5011919;28;20080;-59
2021/01/14 11:16:26;;;;;;;8.55;2.35;;;4.00;99.90;;;;;;5012067;28;20066;-57
2021/01/14 11:18:58;;;;;;;9.50;2.40;;;4.20;99.90;;;;;;5012166;28;20076;-57
2021/01/14 11:21:33;;;;;;;6.13;1.55;;;4.30;99.90;;;;;;5012331;28;20022;-57
2021/01/14 11:24:00;;;;;;;7.40;2.72;;;4.30;99.90;;;;;;5012174;28;20042;-60
2021/01/14 11:26:26;;;;;;;2.38;0.98;;;4.40;99.90;;;;;;5012283;28;20032;-55
2021/01/14 11:28:53;;;;;;;4.25;1.98;;;4.50;99.90;;;;;;5010986;28;20037;-59
2021/01/14 11:31:21;;;;;;;5.43;1.65;;;4.30;99.90;;;;;;5011043;28;20038;-59
2021/01/14 11:33:48;;;;;;;30.38;12.00;;;4.40;99.90;;;;;;5011836;28;20042;-58
2021/01/14 11:36:21;;;;;;;8.55;2.75;;;4.20;99.90;;;;;;5011785;28;20139;-59
2021/01/14 11:38:51;;;;;;;4.68;1.77;;;4.20;99.90;;;;;;5012077;28;20083;-58
2021/01/14 11:41:22;;;;;;;7.05;1.23;;;4.10;99.90;;;;;;5011075;28;20045;-57
2021/01/14 11:43:48;;;;;;;4.82;1.40;;;4.20;99.90;;;;;;5010777;28;20036;-57
2021/01/14 11:46:21;;;;;;;7.65;1.52;;;4.20;99.90;;;;;;5011428;28;20064;-55
2021/01/14 11:48:47;;;;;;;5.88;1.65;;;4.20;99.90;;;;;;5011524;28;20034;-56
2021/01/14 11:51:13;;;;;;;6.57;1.83;;;4.10;99.90;;;;;;5011704;28;20032;-55
2021/01/14 11:53:39;;;;;;;10.13;2.50;;;3.80;99.90;;;;;;5011451;28;20381;-58
2021/01/14 11:56:06;;;;;;;9.90;2.63;;;4.00;99.90;;;;;;5011890;28;20030;-58
2021/01/14 11:58:33;;;;;;;11.23;1.75;;;3.90;99.90;;;;;;5011211;28;20042;-55
2021/01/14 12:00:58;;;;;;;9.57;1.50;;;4.00;99.90;;;;;;5012653;28;20080;-57
2021/01/14 12:03:24;;;;;;;4.68;1.83;;;3.80;99.90;;;;;;5015044;28;20041;-58
2021/01/14 12:05:50;;;;;;;8.60;1.65;;;3.80;99.90;;;;;;5015103;28;20021;-57
2021/01/14 12:08:16;;;;;;;6.55;1.63;;;3.90;99.90;;;;;;5015473;28;20052;-59
2021/01/14 12:10:42;;;;;;;5.07;1.60;;;4.10;99.90;;;;;;5015068;28;20036;-58
2021/01/14 12:13:08;;;;;;;7.80;2.55;;;4.40;99.90;;;;;;5015217;28;20394;-58
2021/01/14 12:15:34;;;;;;;6.47;2.35;;;4.60;99.90;;;;;;5014881;28;20109;-58
2021/01/14 12:18:00;;;;;;;2.72;1.58;;;4.40;99.90;;;;;;5015048;28;20125;-57
2021/01/14 12:20:26;;;;;;;6.88;1.90;;;4.60;99.90;;;;;;5015480;28;20029;-58
2021/01/14 12:22:52;;;;;;;6.18;1.35;;;4.70;99.90;;;;;;5015221;28;20379;-58
2021/01/14 12:25:18;;;;;;;5.22;1.67;;;4.80;99.90;;;;;;5015277;28;20172;-57
2021/01/14 12:27:44;;;;;;;5.45;1.50;;;4.30;99.90;;;;;;5013605;28;20034;-57
2021/01/14 12:30:11;;;;;;;5.38;1.60;;;4.50;99.90;;;;;;5014982;28;20034;-56
2021/01/14 12:32:37;;;;;;;4.53;1.40;;;4.20;99.90;;;;;;5014983;28;20084;-57
2021/01/14 12:35:05;;;;;;;7.68;1.63;;;4.40;99.90;;;;;;5014649;28;20041;-58
2021/01/14 12:37:34;;;;;;;5.43;1.75;;;4.10;99.90;;;;;;5014488;28;20104;-58
2021/01/14 12:40:00;;;;;;;3.95;1.42;;;4.40;99.90;;;;;;5014626;28;20040;-57
2021/01/14 12:42:26;;;;;;;6.22;1.50;;;4.60;99.90;;;;;;5014837;28;20156;-58
2021/01/14 12:44:52;;;;;;;8.65;2.00;;;4.30;99.90;;;;;;5014456;28;20042;-58
2021/01/14 12:47:18;;;;;;;4.50;1.52;;;4.40;99.90;;;;;;5014665;28;20069;-58
2021/01/14 12:49:44;;;;;;;6.57;1.45;;;4.80;99.90;;;;;;5014576;28;20022;-56
2021/01/14 12:52:10;;;;;;;6.93;2.10;;;4.80;99.90;;;;;;5014385;28;20117;-56
2021/01/14 12:54:36;;;;;;;7.15;2.47;;;4.40;99.90;;;;;;5014582;28;20037;-58
2021/01/14 12:57:02;;;;;;;11.93;4.63;;;4.30;99.90;;;;;;5014292;28;20026;-58
2021/01/14 12:59:28;;;;;;;5.93;2.28;;;4.20;99.90;;;;;;5012781;28;20056;-57
2021/01/14 13:01:54;;;;;;;7.97;2.00;;;4.30;99.90;;;;;;5014151;28;20113;-57
2021/01/14 13:04:19;;;;;;;8.43;2.70;;;4.30;99.90;;;;;;5014141;28;20084;-59
2021/01/14 13:06:45;;;;;;;10.40;2.55;;;4.40;99.90;;;;;;5014328;28;20026;-63
2021/01/14 13:09:12;;;;;;;5.00;1.80;;;4.40;99.90;;;;;;5014184;28;20033;-57
2021/01/14 13:11:40;;;;;;;7.13;2.60;;;4.50;99.90;;;;;;5013789;28;20030;-56